Time;durP1;ratioP1;P1;durP2;ratioP2;P2;SDS_P1;SDS_P2;PMS_P1;PMS_P2;Temp;Humidity;BMP_temperature;BMP_pressure;BME280_temperature;BME280_humidity;BME280_pressure;Samples;Min_cycle;Max_cycle;Signal;HPM_P1;HPM_P2
2024/01/27 00:01:45;;;;;;;2.80;1.97;;;;;;;;;;5092370;28;20209;-33
2024/01/27 00:04:17;;;;;;;4.03;1.90;;;;;;;;;;5088254;28;20213;-33
2024/01/27 00:06:46;;;;;;;3.07;2.00;;;;;;;;;;5088755;28;20242;-36
2024/01/27 00:09:19;;;;;;;2.57;2.13;;;;;;;;;;5088366;28;20224;-29
2024/01/27 00:11:48;;;;;;;3.17;1.80;;;;;;;;;;5087592;28;20209;-34
2024/01/27 00:14:16;;;;;;;3.10;2.10;;;;;;;;;;5091394;28;20205;-32
2024/01/27 00:16:46;;;;;;;2.37;2.10;;;;;;;;;;5092558;28;20204;-30
2024/01/27 00:19:15;;;;;;;3.63;1.87;;;;;;;;;;5087549;28;20205;-32
2024/01/27 00:21:49;;;;;;;3.50;1.57;;;;;;;;;;5086433;28;20319;-37
2024/01/27 00:24:18;;;;;;;3.53;1.53;;;;;;;;;;5087865;28;20220;-33
2024/01/27 00:26:56;;;;;;;2.13;1.93;;;;;;;;;;5087866;28;20274;-35
2024/01/27 00:29:25;;;;;;;3.30;2.30;;;;;;;;;;5091452;28;20215;-41
2024/01/27 00:31:55;;;;;;;3.93;2.43;;;;;;;;;;5092265;28;20272;-32
2024/01/27 00:34:24;;;;;;;5.43;2.43;;;;;;;;;;5076648;28;20286;-38
2024/01/27 00:36:56;;;;;;;4.03;2.00;;;;;;;;;;5091042;28;20258;-32
2024/01/27 00:39:26;;;;;;;2.13;1.90;;;;;;;;;;5084558;28;20208;-35
2024/01/27 00:41:59;;;;;;;2.27;1.70;;;;;;;;;;5088718;28;20216;-32
2024/01/27 00:44:28;;;;;;;2.80;2.13;;;;;;;;;;5091250;28;20258;-35
2024/01/27 00:46:59;;;;;;;2.10;1.90;;;;;;;;;;5092505;28;20588;-36
2024/01/27 00:49:28;;;;;;;3.10;1.90;;;;;;;;;;5080849;28;20228;-35
2024/01/27 00:51:58;;;;;;;1.67;1.57;;;;;;;;;;5088634;28;20730;-33
2024/01/27 00:56:57;;;;;;;2.93;2.43;;;;;;;;;;5051293;28;20226;-33
2024/01/27 00:59:32;;;;;;;4.37;1.93;;;;;;;;;;5048433;28;20229;-34
2024/01/27 01:02:10;;;;;;;4.90;2.40;;;;;;;;;;5072653;28;20209;-32
2024/01/27 01:04:44;;;;;;;3.37;1.80;;;;;;;;;;5066145;28;20209;-33
2024/01/27 01:07:19;;;;;;;2.13;2.00;;;;;;;;;;5069076;28;20300;-33
2024/01/27 01:09:55;;;;;;;2.63;1.70;;;;;;;;;;5064453;28;20264;-34
2024/01/27 01:12:25;;;;;;;2.03;1.60;;;;;;;;;;5065301;28;20292;-31
2024/01/27 01:14:58;;;;;;;2.07;1.80;;;;;;;;;;5072422;28;20292;-36
2024/01/27 01:17:29;;;;;;;3.27;1.97;;;;;;;;;;5070340;28;20225;-34
2024/01/27 01:20:03;;;;;;;3.13;1.90;;;;;;;;;;5066714;28;20234;-36
2024/01/27 01:22:36;;;;;;;3.43;2.20;;;;;;;;;;5066878;28;20205;-33
2024/01/27 01:25:05;;;;;;;3.13;1.80;;;;;;;;;;5063026;28;20260;-34
2024/01/27 01:27:35;;;;;;;3.47;1.70;;;;;;;;;;5071806;28;20287;-36
2024/01/27 01:30:04;;;;;;;5.60;1.87;;;;;;;;;;5071629;28;20274;-33
2024/01/27 01:32:36;;;;;;;4.40;1.83;;;;;;;;;;5070282;28;20209;-33
2024/01/27 01:35:05;;;;;;;4.93;1.77;;;;;;;;;;5060883;28;20213;-36
2024/01/27 01:37:35;;;;;;;2.50;1.63;;;;;;;;;;5071151;28;20209;-32
2024/01/27 01:40:07;;;;;;;4.13;1.93;;;;;;;;;;5069212;28;20248;-31
2024/01/27 01:42:37;;;;;;;3.17;2.10;;;;;;;;;;5069703;28;20232;-34
2024/01/27 01:45:07;;;;;;;2.50;1.73;;;;;;;;;;5072403;28;20209;-33
2024/01/27 01:47:38;;;;;;;2.40;1.60;;;;;;;;;;5067706;28;20228;-35
2024/01/27 01:50:07;;;;;;;2.80;2.10;;;;;;;;;;5069188;28;20225;-38
2024/01/27 01:52:39;;;;;;;2.27;1.97;;;;;;;;;;5071387;28;20209;-34
2024/01/27 02:00:16;;;;;;;3.47;1.63;;;;;;;;;;5081997;28;20274;-26
2024/01/27 02:02:48;;;;;;;1.87;1.77;;;;;;;;;;5068249;28;20209;-27
2024/01/27 02:05:17;;;;;;;2.33;1.90;;;;;;;;;;5070937;28;20227;-28
2024/01/27 02:07:46;;;;;;;3.77;2.17;;;;;;;;;;5076442;28;20210;-27
2024/01/27 02:10:19;;;;;;;2.87;1.83;;;;;;;;;;5071185;28;20225;-28
2024/01/27 02:12:49;;;;;;;3.33;1.87;;;;;;;;;;5068781;28;20217;-26
2024/01/27 02:15:21;;;;;;;1.70;1.60;;;;;;;;;;5076832;28;20213;-28
2024/01/27 02:17:54;;;;;;;3.63;1.53;;;;;;;;;;5067368;28;20565;-26
2024/01/27 02:20:24;;;;;;;2.53;1.70;;;;;;;;;;5076711;28;20324;-26
2024/01/27 02:31:09;;;;;;;1.20;1.17;;;;;;;;;;5068622;28;20225;-33
2024/01/27 02:33:47;;;;;;;2.33;1.87;;;;;;;;;;5046293;28;20288;-34
2024/01/27 02:41:30;;;;;;;2.23;1.80;;;;;;;;;;5049960;28;20268;-36
2024/01/27 02:44:09;;;;;;;4.17;2.03;;;;;;;;;;5056210;28;20221;-39
2024/01/27 02:51:54;;;;;;;3.60;2.47;;;;;;;;;;5014258;28;20222;-27
2024/01/27 02:54:44;;;;;;;2.33;1.70;;;;;;;;;;5009141;28;20207;-26
2024/01/27 02:57:22;;;;;;;2.10;1.80;;;;;;;;;;5012721;28;20664;-25
2024/01/27 02:59:55;;;;;;;2.53;1.90;;;;;;;;;;5021298;28;20222;-29
2024/01/27 03:02:29;;;;;;;2.73;1.70;;;;;;;;;;5034577;28;20203;-27
2024/01/27 03:05:03;;;;;;;2.07;1.57;;;;;;;;;;5025922;28;20209;-26
2024/01/27 03:07:48;;;;;;;3.43;2.20;;;;;;;;;;5026305;28;20236;-28
2024/01/27 03:10:25;;;;;;;4.73;2.10;;;;;;;;;;5026678;28;20321;-26
2024/01/27 03:13:07;;;;;;;2.73;1.80;;;;;;;;;;5034590;28;20206;-28
2024/01/27 03:15:44;;;;;;;3.57;1.80;;;;;;;;;;5026856;28;20210;-27
2024/01/27 03:18:24;;;;;;;2.53;2.07;;;;;;;;;;5026058;28;20249;-25
2024/01/27 03:28:40;;;;;;;4.03;1.97;;;;;;;;;;5031876;28;20219;-28
2024/01/27 03:31:14;;;;;;;5.10;1.80;;;;;;;;;;5051330;28;20229;-26
2024/01/27 03:33:49;;;;;;;4.13;2.10;;;;;;;;;;5042516;28;20212;-27
2024/01/27 03:36:19;;;;;;;2.17;1.67;;;;;;;;;;5053748;28;20722;-28
2024/01/27 03:38:54;;;;;;;2.30;1.97;;;;;;;;;;5047814;28;20202;-25
2024/01/27 03:41:30;;;;;;;3.17;1.90;;;;;;;;;;5045204;28;20303;-28
2024/01/27 03:54:25;;;;;;;2.40;1.37;;;;;;;;;;5085214;28;20601;-37
2024/01/27 03:59:38;;;;;;;2.80;1.67;;;;;;;;;;5041074;28;20240;-27
2024/01/27 04:02:12;;;;;;;3.33;2.33;;;;;;;;;;5048465;28;20272;-25
2024/01/27 04:04:46;;;;;;;2.07;1.73;;;;;;;;;;5045376;28;20206;-26
2024/01/27 04:07:22;;;;;;;4.40;2.23;;;;;;;;;;5053466;28;20216;-27
2024/01/27 04:09:58;;;;;;;2.50;2.10;;;;;;;;;;5051241;28;20235;-28
2024/01/27 04:12:30;;;;;;;2.33;2.13;;;;;;;;;;5049842;28;20210;-25
2024/01/27 04:15:03;;;;;;;3.60;2.20;;;;;;;;;;5053028;28;20212;-28
2024/01/27 04:17:38;;;;;;;2.40;1.67;;;;;;;;;;5049837;28;20217;-26
2024/01/27 04:20:17;;;;;;;3.80;2.10;;;;;;;;;;5042857;28;20232;-26
2024/01/27 04:22:50;;;;;;;4.33;2.20;;;;;;;;;;5046008;28;20205;-27
2024/01/27 04:25:23;;;;;;;2.53;2.23;;;;;;;;;;5042536;28;20206;-25
2024/01/27 04:27:55;;;;;;;3.77;2.00;;;;;;;;;;5052384;28;20218;-28
2024/01/27 04:30:28;;;;;;;2.50;2.10;;;;;;;;;;5052675;28;20221;-26
2024/01/27 04:33:03;;;;;;;1.97;1.77;;;;;;;;;;5052757;28;20206;-28
2024/01/27 04:35:33;;;;;;;3.00;1.67;;;;;;;;;;5048155;28;20225;-28
2024/01/27 04:38:10;;;;;;;7.00;2.27;;;;;;;;;;5052692;28;20202;-24
2024/01/27 04:40:53;;;;;;;4.17;2.30;;;;;;;;;;5040556;28;20233;-25
2024/01/27 04:43:29;;;;;;;4.30;1.97;;;;;;;;;;5050080;28;20292;-25
2024/01/27 04:46:01;;;;;;;2.80;1.90;;;;;;;;;;5046123;28;20205;-27
2024/01/27 04:48:36;;;;;;;4.47;2.23;;;;;;;;;;5048239;28;20225;-26
2024/01/27 04:51:07;;;;;;;3.13;2.17;;;;;;;;;;5052398;28;20228;-27
2024/01/27 04:53:40;;;;;;;2.20;1.97;;;;;;;;;;5045028;28;20252;-24
2024/01/27 04:56:17;;;;;;;2.17;2.00;;;;;;;;;;5039818;28;20222;-25
2024/01/27 04:58:54;;;;;;;2.23;1.90;;;;;;;;;;5043531;28;20290;-26
2024/01/27 05:01:38;;;;;;;3.70;2.00;;;;;;;;;;5049879;28;20590;-25
2024/01/27 05:04:11;;;;;;;4.53;2.00;;;;;;;;;;5048141;28;20209;-26
2024/01/27 05:06:40;;;;;;;3.57;2.50;;;;;;;;;;5050460;28;20234;-30
2024/01/27 05:09:10;;;;;;;4.53;2.67;;;;;;;;;;5048877;28;20206;-26
2024/01/27 05:11:42;;;;;;;3.53;2.20;;;;;;;;;;5043806;28;20214;-25
2024/01/27 05:14:15;;;;;;;4.80;2.50;;;;;;;;;;5052427;28;20308;-25
2024/01/27 05:16:45;;;;;;;2.60;2.00;;;;;;;;;;5299616;22;20208;-30
2024/01/27 05:19:15;;;;;;;4.50;2.50;;;;;;;;;;5062872;28;20194;-25
2024/01/27 05:21:43;;;;;;;3.60;2.20;;;;;;;;;;5047377;28;20206;-25
2024/01/27 05:24:15;;;;;;;3.27;2.17;;;;;;;;;;5049889;28;20308;-27
2024/01/27 05:26:45;;;;;;;3.97;2.17;;;;;;;;;;5037243;28;20236;-26
2024/01/27 05:29:13;;;;;;;4.53;2.13;;;;;;;;;;5047781;28;20209;-26
2024/01/27 05:31:43;;;;;;;2.93;2.10;;;;;;;;;;5051413;28;20198;-27
2024/01/27 05:34:15;;;;;;;2.90;2.00;;;;;;;;;;5045315;28;20214;-25
2024/01/27 05:36:42;;;;;;;2.10;1.90;;;;;;;;;;5044153;28;20198;-28
2024/01/27 05:39:13;;;;;;;4.40;2.10;;;;;;;;;;5047222;28;20214;-26
2024/01/27 05:41:43;;;;;;;2.37;1.97;;;;;;;;;;5046900;28;20205;-27
2024/01/27 05:44:13;;;;;;;2.90;1.57;;;;;;;;;;5052260;28;20210;-26
2024/01/27 05:46:44;;;;;;;3.20;2.10;;;;;;;;;;5052067;28;20312;-29
2024/01/27 05:49:16;;;;;;;2.40;1.80;;;;;;;;;;5049256;28;20194;-27
2024/01/27 05:51:44;;;;;;;5.80;2.27;;;;;;;;;;5044088;28;20206;-27
2024/01/27 05:54:14;;;;;;;2.40;2.00;;;;;;;;;;5049061;28;20218;-26
2024/01/27 05:56:48;;;;;;;3.03;2.50;;;;;;;;;;5041683;28;20529;-30
2024/01/27 05:59:20;;;;;;;2.37;1.93;;;;;;;;;;5048618;28;20202;-24
2024/01/27 06:01:48;;;;;;;2.63;2.23;;;;;;;;;;5048076;28;20214;-26
2024/01/27 06:04:29;;;;;;;2.57;2.17;;;;;;;;;;5050594;28;20232;-27
2024/01/27 06:07:00;;;;;;;2.97;2.20;;;;;;;;;;5043242;28;20229;-28
2024/01/27 06:09:28;;;;;;;5.87;2.30;;;;;;;;;;5043426;28;20281;-25
2024/01/27 06:11:56;;;;;;;2.63;2.43;;;;;;;;;;5050916;28;20301;-27
2024/01/27 06:14:32;;;;;;;3.17;2.40;;;;;;;;;;5055034;28;20208;-25
2024/01/27 06:17:01;;;;;;;2.33;2.07;;;;;;;;;;5055807;28;20221;-26
2024/01/27 06:19:32;;;;;;;4.20;2.50;;;;;;;;;;5041280;28;20255;-25
2024/01/27 06:22:01;;;;;;;2.93;2.23;;;;;;;;;;5054072;28;20239;-28
2024/01/27 06:24:33;;;;;;;4.23;2.57;;;;;;;;;;5037752;28;20251;-24
2024/01/27 06:27:01;;;;;;;5.00;2.00;;;;;;;;;;5048338;28;20222;-27
2024/01/27 06:29:34;;;;;;;3.93;2.47;;;;;;;;;;5053932;28;20340;-27
2024/01/27 06:32:03;;;;;;;3.63;2.73;;;;;;;;;;5046423;28;20292;-28
2024/01/27 06:34:35;;;;;;;3.23;2.37;;;;;;;;;;5041861;28;20215;-26
2024/01/27 06:37:07;;;;;;;2.23;2.03;;;;;;;;;;5054773;28;20202;-28
2024/01/27 06:39:37;;;;;;;3.40;2.00;;;;;;;;;;5047946;28;20237;-28
2024/01/27 06:42:08;;;;;;;5.07;2.40;;;;;;;;;;5054399;28;20322;-24
2024/01/27 06:44:38;;;;;;;3.53;2.57;;;;;;;;;;5046921;28;20256;-28
2024/01/27 06:47:09;;;;;;;5.03;2.90;;;;;;;;;;5053275;28;20229;-28
2024/01/27 06:49:37;;;;;;;2.70;2.10;;;;;;;;;;5042069;28;20229;-26
2024/01/27 06:52:09;;;;;;;2.80;2.60;;;;;;;;;;5054712;28;20213;-26
2024/01/27 06:54:41;;;;;;;3.40;2.57;;;;;;;;;;5046937;28;20206;-26
2024/01/27 06:57:22;;;;;;;2.37;2.17;;;;;;;;;;5048663;28;20240;-30
2024/01/27 07:00:02;;;;;;;5.57;2.47;;;;;;;;;;5040456;28;20316;-26
2024/01/27 07:02:33;;;;;;;4.93;2.17;;;;;;;;;;5052152;28;20209;-27
2024/01/27 07:05:07;;;;;;;2.83;2.03;;;;;;;;;;5049064;28;20275;-25
2024/01/27 07:07:36;;;;;;;3.13;2.20;;;;;;;;;;5054904;28;20228;-27
2024/01/27 07:10:04;;;;;;;4.27;2.90;;;;;;;;;;5049905;28;20225;-26
2024/01/27 07:12:34;;;;;;;2.30;2.10;;;;;;;;;;5054985;28;20301;-26
2024/01/27 07:15:12;;;;;;;3.40;2.90;;;;;;;;;;5055025;28;20257;-25
2024/01/27 07:17:42;;;;;;;3.83;3.20;;;;;;;;;;5049748;28;20300;-27
2024/01/27 07:20:13;;;;;;;4.13;3.13;;;;;;;;;;5051364;28;20245;-26
2024/01/27 07:22:44;;;;;;;4.20;3.00;;;;;;;;;;5053195;28;20209;-27
2024/01/27 07:25:16;;;;;;;2.90;2.33;;;;;;;;;;5044166;28;20363;-24
2024/01/27 07:27:45;;;;;;;3.93;2.70;;;;;;;;;;5047872;28;20228;-25
2024/01/27 07:30:16;;;;;;;5.03;3.30;;;;;;;;;;5053011;28;20222;-25
2024/01/27 07:32:44;;;;;;;4.03;3.20;;;;;;;;;;5048710;28;20206;-28
2024/01/27 07:35:16;;;;;;;5.07;3.00;;;;;;;;;;5045391;28;20201;-28
2024/01/27 07:37:46;;;;;;;5.20;2.50;;;;;;;;;;5053053;28;20210;-29
2024/01/27 07:40:18;;;;;;;3.30;2.67;;;;;;;;;;5051599;28;20222;-24
2024/01/27 07:42:58;;;;;;;3.97;2.70;;;;;;;;;;5048750;28;20213;-29
2024/01/27 07:45:28;;;;;;;4.23;2.60;;;;;;;;;;5053782;28;20208;-25
2024/01/27 07:47:58;;;;;;;3.63;2.57;;;;;;;;;;5053452;28;20312;-26
2024/01/27 07:50:36;;;;;;;2.53;2.10;;;;;;;;;;5046058;28;20239;-24
2024/01/27 07:53:21;;;;;;;2.80;2.50;;;;;;;;;;5046959;28;20255;-27
2024/01/27 07:58:37;;;;;;;5.17;2.70;;;;;;;;;;5073280;22;20233;-25
2024/01/27 08:01:10;;;;;;;4.63;2.90;;;;;;;;;;5066664;28;20221;-27
2024/01/27 08:03:43;;;;;;;3.80;2.63;;;;;;;;;;5066086;28;20555;-30
2024/01/27 08:06:17;;;;;;;3.63;2.63;;;;;;;;;;5073047;28;20209;-29
2024/01/27 08:08:55;;;;;;;5.90;3.00;;;;;;;;;;5070747;28;20327;-26
2024/01/27 08:11:27;;;;;;;3.90;2.53;;;;;;;;;;5064068;28;20234;-27
2024/01/27 08:13:56;;;;;;;2.97;2.23;;;;;;;;;;5053837;28;20205;-26
2024/01/27 08:16:25;;;;;;;2.97;2.67;;;;;;;;;;5071550;28;20573;-27
2024/01/27 08:18:53;;;;;;;2.93;2.73;;;;;;;;;;5061441;28;20201;-26
2024/01/27 08:21:20;;;;;;;4.57;3.20;;;;;;;;;;5069650;28;20228;-26
2024/01/27 08:23:48;;;;;;;3.20;2.53;;;;;;;;;;5066596;28;20231;-29
2024/01/27 08:26:15;;;;;;;3.33;2.60;;;;;;;;;;5065994;28;20205;-27
2024/01/27 08:28:45;;;;;;;4.13;3.17;;;;;;;;;;5068569;28;20256;-30
2024/01/27 08:31:12;;;;;;;3.50;2.97;;;;;;;;;;5071023;28;20259;-28
2024/01/27 08:33:41;;;;;;;7.70;4.27;;;;;;;;;;5068048;28;20208;-28
2024/01/27 08:36:08;;;;;;;7.77;3.97;;;;;;;;;;5064051;28;20208;-29
2024/01/27 08:38:36;;;;;;;3.67;3.37;;;;;;;;;;5062343;28;20211;-27
2024/01/27 08:41:03;;;;;;;3.57;2.97;;;;;;;;;;5055474;28;20239;-29
2024/01/27 08:43:30;;;;;;;5.23;3.27;;;;;;;;;;5068971;28;20213;-28
2024/01/27 08:45:57;;;;;;;6.20;3.33;;;;;;;;;;5061390;28;20655;-28
2024/01/27 08:48:24;;;;;;;3.30;2.77;;;;;;;;;;5061707;28;20217;-28
2024/01/27 08:50:53;;;;;;;5.30;3.27;;;;;;;;;;5066409;28;20256;-28
2024/01/27 08:53:20;;;;;;;7.03;3.70;;;;;;;;;;5071800;28;20738;-27
2024/01/27 08:55:47;;;;;;;4.33;3.33;;;;;;;;;;5056867;28;20285;-29
2024/01/27 08:58:15;;;;;;;8.00;4.97;;;;;;;;;;5066403;28;20216;-29
2024/01/27 09:00:42;;;;;;;5.20;3.53;;;;;;;;;;5073303;28;20293;-27
2024/01/27 09:03:09;;;;;;;3.57;3.20;;;;;;;;;;5070292;28;20211;-29
2024/01/27 09:05:36;;;;;;;7.40;3.87;;;;;;;;;;5063785;28;20255;-30
2024/01/27 09:08:07;;;;;;;7.97;4.03;;;;;;;;;;5066292;28;20229;-31
2024/01/27 09:10:34;;;;;;;7.10;5.13;;;;;;;;;;5052076;28;20447;-30
2024/01/27 09:13:01;;;;;;;8.23;3.97;;;;;;;;;;5063298;28;20276;-28
2024/01/27 09:15:30;;;;;;;7.10;4.13;;;;;;;;;;5067073;28;20212;-27
2024/01/27 09:17:57;;;;;;;7.73;4.80;;;;;;;;;;5061379;28;20236;-27
2024/01/27 09:20:24;;;;;;;8.10;4.30;;;;;;;;;;5068569;28;20312;-27
2024/01/27 09:22:51;;;;;;;8.27;4.67;;;;;;;;;;5069354;28;20208;-26
2024/01/27 09:25:20;;;;;;;4.93;3.77;;;;;;;;;;5063303;28;20198;-27
2024/01/27 09:27:48;;;;;;;5.33;4.00;;;;;;;;;;5071394;28;20205;-28
2024/01/27 09:30:16;;;;;;;6.17;4.00;;;;;;;;;;5069743;28;20710;-29
2024/01/27 09:32:43;;;;;;;4.93;3.90;;;;;;;;;;5072706;28;20229;-28
2024/01/27 09:35:10;;;;;;;4.90;3.93;;;;;;;;;;5065016;28;20212;-29
2024/01/27 09:37:37;;;;;;;6.53;3.73;;;;;;;;;;5072402;28;20215;-28
2024/01/27 09:40:05;;;;;;;7.50;4.10;;;;;;;;;;5060529;28;20779;-30
2024/01/27 09:42:35;;;;;;;4.50;3.93;;;;;;;;;;5062744;28;20209;-30
2024/01/27 09:45:03;;;;;;;5.83;4.27;;;;;;;;;;5065447;28;20201;-27
2024/01/27 09:47:31;;;;;;;7.60;3.90;;;;;;;;;;5073387;28;20205;-27
2024/01/27 09:49:58;;;;;;;5.40;3.93;;;;;;;;;;5071471;28;20735;-30
2024/01/27 09:52:26;;;;;;;5.93;4.33;;;;;;;;;;5075118;28;20210;-27
2024/01/27 09:54:53;;;;;;;5.30;3.90;;;;;;;;;;5068654;28;20222;-29
2024/01/27 09:57:22;;;;;;;7.53;4.53;;;;;;;;;;5070042;28;20223;-28
2024/01/27 09:59:51;;;;;;;4.73;3.77;;;;;;;;;;5075343;28;20229;-30
2024/01/27 10:02:19;;;;;;;5.97;3.97;;;;;;;;;;5066128;28;20201;-27
2024/01/27 10:04:48;;;;;;;6.57;4.00;;;;;;;;;;5070259;28;20213;-30
2024/01/27 10:07:15;;;;;;;7.17;4.87;;;;;;;;;;5073822;28;20202;-26
2024/01/27 10:09:43;;;;;;;6.93;4.43;;;;;;;;;;5069248;28;20237;-30
2024/01/27 10:12:11;;;;;;;4.57;3.93;;;;;;;;;;5068566;28;20205;-28
2024/01/27 10:14:41;;;;;;;9.13;4.73;;;;;;;;;;5074201;28;20233;-28
2024/01/27 10:17:12;;;;;;;6.63;3.87;;;;;;;;;;5068925;28;20260;-27
2024/01/27 10:19:39;;;;;;;7.63;3.80;;;;;;;;;;5073286;28;20297;-27
2024/01/27 10:22:06;;;;;;;7.03;4.10;;;;;;;;;;5074436;28;20209;-27
2024/01/27 10:24:35;;;;;;;4.73;3.83;;;;;;;;;;5069542;28;20201;-26
2024/01/27 10:27:03;;;;;;;5.03;3.97;;;;;;;;;;5075170;28;20205;-29
2024/01/27 10:29:30;;;;;;;5.77;3.93;;;;;;;;;;5072113;28;20257;-29
2024/01/27 10:31:57;;;;;;;7.93;4.70;;;;;;;;;;5071331;28;20252;-27
2024/01/27 10:34:26;;;;;;;7.73;4.53;;;;;;;;;;5062827;28;20401;-30
2024/01/27 10:36:53;;;;;;;6.40;4.40;;;;;;;;;;5070139;28;20212;-29
2024/01/27 10:39:22;;;;;;;5.57;4.37;;;;;;;;;;5063857;28;20286;-27
2024/01/27 10:41:50;;;;;;;5.83;3.73;;;;;;;;;;5056510;28;20263;-28
2024/01/27 10:44:18;;;;;;;4.03;3.47;;;;;;;;;;5070139;28;20205;-27
2024/01/27 10:46:46;;;;;;;5.93;3.87;;;;;;;;;;5071833;28;20576;-30
2024/01/27 10:49:14;;;;;;;5.63;3.17;;;;;;;;;;5064116;28;20225;-27
2024/01/27 10:51:46;;;;;;;5.60;3.73;;;;;;;;;;5068519;28;20217;-26
2024/01/27 10:54:16;;;;;;;7.80;3.73;;;;;;;;;;5062488;28;20221;-28
2024/01/27 10:56:44;;;;;;;6.90;3.77;;;;;;;;;;5061457;28;20217;-29
2024/01/27 10:59:13;;;;;;;8.33;4.03;;;;;;;;;;5069334;28;20249;-27
2024/01/27 11:01:41;;;;;;;4.73;3.70;;;;;;;;;;5063746;28;20201;-27
2024/01/27 11:04:10;;;;;;;6.33;3.93;;;;;;;;;;5066868;28;20205;-27
2024/01/27 11:06:38;;;;;;;5.90;3.90;;;;;;;;;;5070602;28;20205;-29
2024/01/27 11:09:08;;;;;;;3.77;2.80;;;;;;;;;;5065994;28;20225;-26
2024/01/27 11:11:35;;;;;;;8.60;3.13;;;;;;;;;;5057550;28;20205;-27
2024/01/27 11:14:03;;;;;;;5.33;4.10;;;;;;;;;;5069613;28;20288;-28
2024/01/27 11:16:30;;;;;;;5.80;3.43;;;;;;;;;;5070137;28;20205;-28
2024/01/27 11:18:56;;;;;;;7.40;3.77;;;;;;;;;;5061911;28;20201;-28
2024/01/27 11:21:24;;;;;;;6.87;3.40;;;;;;;;;;5063852;28;20253;-29
2024/01/27 11:23:51;;;;;;;7.10;3.70;;;;;;;;;;5055733;28;20201;-27
2024/01/27 11:26:22;;;;;;;6.30;3.90;;;;;;;;;;5061823;28;20215;-29
2024/01/27 11:28:49;;;;;;;4.60;3.40;;;;;;;;;;5070208;28;20221;-29
2024/01/27 11:31:18;;;;;;;8.23;4.20;;;;;;;;;;5072932;28;20225;-30
2024/01/27 11:33:46;;;;;;;6.77;4.20;;;;;;;;;;5070597;28;20215;-26
2024/01/27 11:36:20;;;;;;;7.63;4.40;;;;;;;;;;5074573;28;20284;-29
2024/01/27 11:38:47;;;;;;;10.27;5.00;;;;;;;;;;5072873;28;20205;-27
2024/01/27 11:41:24;;;;;;;5.77;4.10;;;;;;;;;;5063212;28;20228;-29
2024/01/27 11:43:54;;;;;;;9.60;5.07;;;;;;;;;;5065969;28;20324;-28
2024/01/27 11:46:21;;;;;;;9.33;4.70;;;;;;;;;;5074857;28;20205;-30
2024/01/27 11:48:48;;;;;;;8.60;4.10;;;;;;;;;;5070818;28;20225;-27
2024/01/27 11:51:15;;;;;;;8.77;3.87;;;;;;;;;;5067345;28;20335;-29
2024/01/27 11:53:44;;;;;;;7.43;4.07;;;;;;;;;;5070770;28;20701;-26
2024/01/27 11:56:12;;;;;;;5.37;3.70;;;;;;;;;;5059436;28;20229;-27
2024/01/27 11:58:39;;;;;;;5.97;3.13;;;;;;;;;;5064675;28;20266;-30
2024/01/27 12:01:21;;;;;;;5.90;2.73;;;;;;;;;;5123967;27;20562;-35
2024/01/27 12:03:49;;;;;;;5.43;3.00;;;;;;;;;;5105715;28;20281;-40
2024/01/27 12:06:16;;;;;;;9.30;3.33;;;;;;;;;;5104589;28;20290;-38
2024/01/27 12:08:46;;;;;;;6.73;3.20;;;;;;;;;;5122799;28;20218;-36
2024/01/27 12:11:14;;;;;;;5.03;3.00;;;;;;;;;;5095272;28;20220;-38
2024/01/27 12:13:41;;;;;;;5.00;2.77;;;;;;;;;;5102644;28;20210;-35
2024/01/27 12:16:08;;;;;;;4.40;3.20;;;;;;;;;;5116980;28;20320;-34
2024/01/27 12:18:37;;;;;;;4.10;2.70;;;;;;;;;;5116342;27;20226;-39
2024/01/27 12:21:04;;;;;;;4.87;2.97;;;;;;;;;;5097794;28;20225;-35
2024/01/27 12:23:32;;;;;;;4.97;2.53;;;;;;;;;;5106500;28;20235;-33
2024/01/27 12:25:59;;;;;;;5.67;2.63;;;;;;;;;;5106359;27;20203;-34
2024/01/27 12:28:26;;;;;;;4.07;2.67;;;;;;;;;;5106003;28;20208;-38
2024/01/27 12:30:54;;;;;;;5.90;2.37;;;;;;;;;;5105618;28;20230;-34
2024/01/27 12:33:24;;;;;;;4.77;2.70;;;;;;;;;;5108946;28;20210;-37
2024/01/27 12:35:54;;;;;;;7.20;2.67;;;;;;;;;;5101701;28;20212;-37
2024/01/27 12:38:36;;;;;;;4.90;2.60;;;;;;;;;;5097800;28;20556;-32
2024/01/27 12:41:11;;;;;;;5.17;2.30;;;;;;;;;;5113390;28;20322;-37
2024/01/27 12:43:57;;;;;;;5.47;2.33;;;;;;;;;;5108749;27;20211;-33
2024/01/27 12:46:25;;;;;;;5.83;2.37;;;;;;;;;;5104338;27;20206;-33
2024/01/27 12:48:52;;;;;;;6.03;2.83;;;;;;;;;;5090046;28;20200;-38
2024/01/27 12:51:21;;;;;;;5.83;2.43;;;;;;;;;;5096856;28;20226;-37
2024/01/27 12:53:48;;;;;;;5.87;2.20;;;;;;;;;;5116648;28;20748;-35
2024/01/27 12:56:16;;;;;;;4.00;2.43;;;;;;;;;;5095644;28;20203;-30
2024/01/27 12:58:43;;;;;;;5.73;2.37;;;;;;;;;;5120147;28;20218;-36
2024/01/27 13:01:11;;;;;;;4.20;2.50;;;;;;;;;;5112081;27;20231;-36
2024/01/27 13:03:38;;;;;;;5.30;2.53;;;;;;;;;;5107334;27;20251;-31
2024/01/27 13:06:05;;;;;;;7.30;2.20;;;;;;;;;;5105669;28;20214;-32
2024/01/27 13:08:34;;;;;;;5.27;2.67;;;;;;;;;;5120124;28;20203;-34
2024/01/27 13:11:02;;;;;;;3.57;2.40;;;;;;;;;;5102719;27;20224;-34
2024/01/27 13:13:29;;;;;;;6.70;2.20;;;;;;;;;;5086641;28;20215;-36
2024/01/27 13:15:57;;;;;;;2.53;2.00;;;;;;;;;;5106393;28;20227;-33
2024/01/27 13:18:25;;;;;;;3.63;1.83;;;;;;;;;;5093079;28;20201;-35
2024/01/27 13:20:52;;;;;;;2.93;2.57;;;;;;;;;;5098806;28;20228;-37
2024/01/27 13:23:19;;;;;;;8.57;2.97;;;;;;;;;;5103940;28;20290;-33
2024/01/27 13:25:48;;;;;;;4.00;2.70;;;;;;;;;;5075869;28;20205;-32
2024/01/27 13:28:15;;;;;;;5.13;2.40;;;;;;;;;;5102954;28;20416;-34
2024/01/27 13:30:42;;;;;;;5.73;3.30;;;;;;;;;;5103412;28;20247;-33
2024/01/27 13:33:11;;;;;;;4.97;2.50;;;;;;;;;;5087662;28;20224;-33
2024/01/27 13:35:39;;;;;;;7.13;3.00;;;;;;;;;;5093985;28;20204;-38
2024/01/27 13:38:07;;;;;;;5.90;3.07;;;;;;;;;;5085672;28;20217;-34
2024/01/27 13:40:34;;;;;;;8.10;2.70;;;;;;;;;;5088050;28;20219;-31
2024/01/27 13:43:02;;;;;;;6.77;2.70;;;;;;;;;;5093353;28;20200;-38
2024/01/27 13:45:29;;;;;;;5.03;2.30;;;;;;;;;;5107010;28;20228;-33
2024/01/27 13:47:57;;;;;;;4.93;2.23;;;;;;;;;;5084521;28;20212;-34
2024/01/27 13:50:25;;;;;;;3.97;2.33;;;;;;;;;;5086688;28;20613;-34
2024/01/27 13:52:52;;;;;;;2.40;2.20;;;;;;;;;;5092781;28;20613;-36
2024/01/27 13:55:20;;;;;;;7.97;2.80;;;;;;;;;;5083799;28;20211;-37
2024/01/27 13:57:48;;;;;;;5.87;2.13;;;;;;;;;;5104474;28;20207;-35
2024/01/27 14:00:17;;;;;;;3.47;2.30;;;;;;;;;;5110506;28;20231;-38
2024/01/27 14:02:44;;;;;;;4.53;2.03;;;;;;;;;;5103938;28;20196;-34
2024/01/27 14:05:11;;;;;;;4.27;2.10;;;;;;;;;;5091526;28;20209;-33
2024/01/27 14:07:39;;;;;;;5.57;2.60;;;;;;;;;;5101512;28;20196;-37
2024/01/27 14:10:06;;;;;;;2.47;2.20;;;;;;;;;;5088061;28;20216;-32
2024/01/27 14:12:33;;;;;;;4.17;2.10;;;;;;;;;;5097844;28;20211;-36
2024/01/27 14:15:06;;;;;;;3.40;1.73;;;;;;;;;;5104570;28;20201;-35
2024/01/27 14:17:36;;;;;;;4.60;1.70;;;;;;;;;;5094816;28;20583;-35
2024/01/27 14:20:03;;;;;;;3.00;1.83;;;;;;;;;;5077841;28;20279;-36
2024/01/27 14:22:30;;;;;;;6.40;2.50;;;;;;;;;;5091554;28;20214;-35
2024/01/27 14:24:57;;;;;;;10.00;2.10;;;;;;;;;;5085570;28;20201;-36
2024/01/27 14:27:26;;;;;;;4.23;1.80;;;;;;;;;;5091391;28;20677;-33
2024/01/27 14:29:54;;;;;;;3.83;1.50;;;;;;;;;;5108251;28;20227;-37
2024/01/27 14:32:21;;;;;;;4.37;1.60;;;;;;;;;;5087315;28;20201;-38
2024/01/27 14:34:50;;;;;;;2.73;1.73;;;;;;;;;;5080204;28;20283;-35
2024/01/27 14:37:17;;;;;;;1.93;1.43;;;;;;;;;;5110506;28;20272;-34
2024/01/27 14:39:45;;;;;;;3.97;1.83;;;;;;;;;;5097191;28;20231;-31
2024/01/27 14:42:12;;;;;;;2.70;1.53;;;;;;;;;;5088230;28;20246;-34
2024/01/27 14:44:40;;;;;;;3.73;1.53;;;;;;;;;;5090745;28;20280;-38
2024/01/27 14:47:07;;;;;;;4.93;2.97;;;;;;;;;;5099215;28;20200;-35
2024/01/27 14:49:36;;;;;;;5.20;1.43;;;;;;;;;;5091135;28;20228;-35
2024/01/27 14:52:05;;;;;;;2.87;1.60;;;;;;;;;;5084912;28;20205;-33
2024/01/27 14:54:32;;;;;;;7.40;2.80;;;;;;;;;;5094419;28;20204;-33
2024/01/27 14:56:59;;;;;;;2.90;1.57;;;;;;;;;;5087530;28;20207;-36
2024/01/27 14:59:27;;;;;;;2.37;1.77;;;;;;;;;;5106839;28;20316;-36
2024/01/27 15:01:55;;;;;;;6.30;1.80;;;;;;;;;;5092828;28;20254;-34
2024/01/27 15:04:25;;;;;;;4.83;1.60;;;;;;;;;;5095789;28;20265;-32
2024/01/27 15:06:52;;;;;;;5.03;2.00;;;;;;;;;;5100512;28;20254;-31
2024/01/27 15:09:21;;;;;;;5.30;1.33;;;;;;;;;;5099436;28;20200;-34
2024/01/27 15:11:48;;;;;;;3.00;1.60;;;;;;;;;;5098442;28;20257;-35
2024/01/27 15:14:15;;;;;;;2.87;1.63;;;;;;;;;;5104549;28;20269;-34
2024/01/27 15:16:42;;;;;;;5.37;1.73;;;;;;;;;;5097229;28;20292;-33
2024/01/27 15:19:10;;;;;;;3.67;1.90;;;;;;;;;;5090581;28;20300;-36
2024/01/27 15:21:37;;;;;;;6.07;2.27;;;;;;;;;;5103160;28;20222;-35
2024/01/27 15:24:05;;;;;;;4.23;1.67;;;;;;;;;;5097622;28;20653;-31
2024/01/27 15:26:33;;;;;;;2.60;1.37;;;;;;;;;;5095277;28;20211;-30
2024/01/27 15:29:00;;;;;;;3.50;1.40;;;;;;;;;;5096680;28;20200;-33
2024/01/27 15:31:28;;;;;;;3.50;1.80;;;;;;;;;;5105779;28;20259;-41
2024/01/27 15:33:55;;;;;;;3.77;1.70;;;;;;;;;;5093294;28;20485;-34
2024/01/27 15:36:22;;;;;;;5.73;1.33;;;;;;;;;;5087765;28;20295;-33
2024/01/27 15:38:49;;;;;;;3.43;1.60;;;;;;;;;;5098340;28;20207;-39
2024/01/27 15:41:18;;;;;;;1.70;1.40;;;;;;;;;;5086922;28;20237;-33
2024/01/27 15:43:49;;;;;;;4.17;1.80;;;;;;;;;;5101572;28;20245;-35
2024/01/27 15:46:20;;;;;;;2.27;1.60;;;;;;;;;;5092464;28;20215;-35
2024/01/27 15:48:47;;;;;;;3.80;1.73;;;;;;;;;;5092740;28;20226;-35
2024/01/27 15:51:14;;;;;;;2.27;1.73;;;;;;;;;;5099224;28;20220;-33